createdAt,value
2022-11-11T00:02:01.809Z,7.49
2022-11-11T00:07:11.993Z,7.49
2022-11-11T00:12:27.796Z,7.4
2022-11-11T00:17:30.515Z,7.4
2022-11-11T00:22:39.066Z,7.4
2022-11-11T00:27:51.971Z,7.4
2022-11-11T00:33:00.521Z,7.53
2022-11-11T00:38:10.323Z,7.53
2022-11-11T00:43:19.369Z,7.43
2022-11-11T00:48:28.184Z,7.43
2022-11-11T00:53:37.067Z,7.34
2022-11-11T00:58:46.708Z,7.34
2022-11-11T01:03:55.951Z,7.47
2022-11-11T01:09:05.635Z,7.47
2022-11-11T01:14:14.104Z,7.45
2022-11-11T01:19:23.838Z,7.45
2022-11-11T01:24:33.101Z,7.59
2022-11-11T01:29:43.656Z,7.59
2022-11-11T01:34:59.926Z,7.57
2022-11-11T01:40:17.470Z,7.34
2022-11-11T01:45:34.766Z,7.34
2022-11-11T01:50:50.993Z,7.4
2022-11-11T01:56:08.512Z,7.4
2022-11-11T02:01:24.816Z,7.38
2022-11-11T02:06:42.023Z,7.38
2022-11-11T02:11:59.529Z,7.62
2022-11-11T02:17:16.903Z,7.62
2022-11-11T02:21:44.568Z,7.54
2022-11-11T02:26:19.152Z,7.54
2022-11-11T02:31:29.225Z,7.39
2022-11-11T02:36:37.712Z,7.39
2022-11-11T02:41:46.346Z,7.37
2022-11-11T02:46:54.578Z,7.37
2022-11-11T02:52:03.956Z,7.35
2022-11-11T02:57:16.364Z,7.35
2022-11-11T03:02:32.716Z,7.43
2022-11-11T03:07:48.456Z,7.43
2022-11-11T03:13:04.838Z,7.29
2022-11-11T03:18:19.595Z,7.29
2022-11-11T03:23:34.861Z,7.41
2022-11-11T03:28:51.737Z,7.41
2022-11-11T03:34:06.644Z,7.3
2022-11-11T03:39:21.509Z,7.3
2022-11-11T03:44:37.675Z,7.43
2022-11-11T03:49:53.850Z,7.43
2022-11-11T03:55:19.592Z,7.38
2022-11-11T03:59:44.490Z,7.38
2022-11-11T04:04:18.764Z,7.38
2022-11-11T04:09:28.529Z,7.38
2022-11-11T04:14:39.558Z,7.42
2022-11-11T04:20:35.214Z,7.42
2022-11-11T04:25:02.291Z,7.38
2022-11-11T04:30:10.129Z,7.38
2022-11-11T04:35:19.233Z,7.41
2022-11-11T04:40:28.998Z,7.41
2022-11-11T04:45:38.128Z,7.41
2022-11-11T04:50:47.283Z,7.25
2022-11-11T04:56:03.769Z,7.25
2022-11-11T05:01:20.202Z,7.4
2022-11-11T05:06:39.017Z,7.4
2022-11-11T05:11:56.673Z,7.42
2022-11-11T05:17:12.843Z,7.42
2022-11-11T05:22:30.274Z,7.31
2022-11-11T05:27:46.506Z,7.31
2022-11-11T05:33:03.401Z,7.29
2022-11-11T05:38:20.042Z,7.29
2022-11-11T05:43:36.200Z,7.26
2022-11-11T05:48:53.635Z,7.26
2022-11-11T05:53:19.321Z,7.41
2022-11-11T05:57:50.938Z,7.41
2022-11-11T06:02:59.390Z,7.28
2022-11-11T06:08:07.873Z,7.28
2022-11-11T06:13:16.359Z,7.29
2022-11-11T06:18:31.654Z,7.29
2022-11-11T06:23:35.245Z,7.3
2022-11-11T06:28:45.036Z,7.3
2022-11-11T06:33:53.579Z,7.39
2022-11-11T06:39:01.350Z,7.39
2022-11-11T06:44:15.896Z,7.29
2022-11-11T06:49:31.441Z,7.29
2022-11-11T06:54:46.947Z,7.32
2022-11-11T07:00:02.464Z,7.32
2022-11-11T07:05:18.650Z,7.39
2022-11-11T07:10:34.144Z,7.39
2022-11-11T07:15:49.051Z,7.32
2022-11-11T07:21:05.248Z,7.32
2022-11-11T07:26:20.701Z,7.41
2022-11-11T07:31:35.614Z,7.41
2022-11-11T07:36:51.100Z,7.28
2022-11-11T07:42:06.622Z,7.28
2022-11-11T07:47:21.503Z,7.23
2022-11-11T07:51:47.015Z,7.27
2022-11-11T07:56:20.687Z,7.27
2022-11-11T08:01:29.553Z,7.31
2022-11-11T08:06:38.026Z,7.31
2022-11-11T08:11:46.116Z,7.22
2022-11-11T08:16:55.889Z,7.22
2022-11-11T08:22:14.511Z,7.46
2022-11-11T08:27:25.320Z,7.46
2022-11-11T08:32:41.551Z,7.29
2022-11-11T08:37:57.676Z,7.29
2022-11-11T08:43:15.079Z,7.34
2022-11-11T08:48:31.414Z,7.34
2022-11-11T08:53:48.670Z,7.34
2022-11-11T08:59:06.287Z,7.34
2022-11-11T09:04:45.501Z,7.35
2022-11-11T09:09:39.245Z,7.35
2022-11-11T09:14:56.363Z,7.57
2022-11-11T09:19:23.837Z,7.57
2022-11-11T09:23:54.448Z,7.41
2022-11-11T09:29:02.959Z,7.41
2022-11-11T09:34:12.687Z,7.62
2022-11-11T09:39:21.792Z,7.62
2022-11-11T09:44:30.934Z,7.42
2022-11-11T09:49:39.397Z,7.42
2022-11-11T09:54:47.885Z,7.44
2022-11-11T09:59:57.637Z,7.44
2022-11-11T10:05:06.115Z,7.59
2022-11-11T10:10:15.244Z,7.59
2022-11-11T10:15:24.367Z,7.5
2022-11-11T10:20:34.119Z,7.5
2022-11-11T10:25:43.280Z,7.48
2022-11-11T10:30:52.388Z,7.48
2022-11-11T10:36:00.861Z,7.54
2022-11-11T10:41:10.600Z,7.54
2022-11-11T10:46:24.833Z,7.47
2022-11-11T10:51:42.435Z,7.47
2022-11-11T10:57:01.021Z,7.46
2022-11-11T11:02:18.433Z,7.57
2022-11-11T11:07:35.878Z,7.57
2022-11-11T11:12:53.806Z,7.51
2022-11-11T11:18:10.603Z,7.51
2022-11-11T11:23:28.730Z,7.54
2022-11-11T11:28:46.278Z,7.54
2022-11-11T11:34:03.625Z,7.61
2022-11-11T11:39:20.989Z,7.61
2022-11-11T11:44:37.480Z,7.71
2022-11-11T11:49:55.000Z,7.71
2022-11-11T11:55:12.720Z,7.69
2022-11-11T12:00:29.001Z,7.69
2022-11-11T12:04:55.710Z,7.75
2022-11-11T12:09:22.604Z,7.75
2022-11-11T12:14:39.874Z,7.79
2022-11-11T12:19:57.276Z,7.79
2022-11-11T12:25:14.277Z,7.71
2022-11-11T12:37:29.149Z,7.73
2022-11-11T12:39:14.910Z,7.73
2022-11-11T12:44:25.166Z,7.71
2022-11-11T12:51:39.400Z,7.71
2022-11-11T12:54:09.397Z,7.71
2022-11-11T12:56:55.711Z,7.73
2022-11-11T13:03:52.518Z,7.7
2022-11-11T13:09:49.645Z,7.7
2022-11-11T13:16:24.555Z,7.71
2022-11-11T13:18:44.483Z,7.71
2022-11-11T13:23:21.141Z,7.71
2022-11-11T13:30:17.184Z,7.67
2022-11-11T13:35:34.460Z,7.68
2022-11-11T13:40:49.954Z,7.68
2022-11-11T13:46:08.194Z,7.65
2022-11-11T13:51:25.012Z,7.65
2022-11-11T14:02:07.534Z,7.74
2022-11-11T14:02:49.171Z,7.74
2022-11-11T14:12:31.640Z,7.63
2022-11-11T14:13:21.821Z,7.63
2022-11-11T14:18:03.545Z,7.76
2022-11-11T14:23:04.359Z,7.6
2022-11-11T14:26:41.256Z,7.6
2022-11-11T14:30:24.208Z,7.6
2022-11-11T14:32:44.138Z,7.6
2022-11-11T14:36:26.031Z,7.63
2022-11-11T14:38:06.083Z,7.63
2022-11-11T14:41:42.390Z,7.63
2022-11-11T14:43:22.588Z,7.63
2022-11-11T14:47:50.275Z,7.8
2022-11-11T14:53:07.241Z,7.8
2022-11-11T15:05:21.633Z,7.39
2022-11-11T15:06:11.641Z,7.39
2022-11-11T15:15:55.057Z,7.41
2022-11-11T15:16:45.113Z,7.41
2022-11-11T15:26:26.759Z,7.53
2022-11-11T15:27:16.751Z,7.53
2022-11-11T15:36:59.570Z,7.38
2022-11-11T15:37:49.575Z,7.38
2022-11-11T15:52:51.395Z,7.41
2022-11-11T15:53:41.395Z,7.41
2022-11-11T15:58:09.055Z,7.46
2022-11-11T15:58:59.110Z,7.46
2022-11-11T16:03:26.289Z,7.38
2022-11-11T16:04:34.293Z,7.38
2022-11-11T16:08:43.734Z,7.38
2022-11-11T16:09:55.989Z,7.38
2022-11-11T16:14:18.904Z,7.44
2022-11-11T16:14:58.592Z,7.44
2022-11-11T16:19:36.522Z,7.44
2022-11-11T16:20:57.978Z,7.44
2022-11-11T16:25:43.252Z,7.4
2022-11-11T16:31:46.782Z,7.4
2022-11-11T16:40:26.059Z,7.55
2022-11-11T16:45:44.762Z,7.51
2022-11-11T16:56:17.574Z,7.51
2022-11-11T17:01:34.124Z,7.6
2022-11-11T17:06:49.896Z,7.7
2022-11-11T17:12:06.454Z,7.7
2022-11-11T17:12:56.453Z,7.7
2022-11-11T17:17:23.237Z,7.58
2022-11-11T17:18:13.236Z,7.58
2022-11-11T17:22:40.200Z,7.58
2022-11-11T17:28:15.561Z,7.61
2022-11-11T17:28:55.497Z,7.61
2022-11-11T17:33:52.427Z,7.78
2022-11-11T18:25:46.940Z,7.57
2022-11-11T18:26:36.936Z,7.57
2022-11-11T18:36:19.272Z,7.59
2022-11-11T18:37:09.265Z,7.59
2022-11-11T18:46:51.580Z,7.77
2022-11-11T18:47:41.983Z,7.77
2022-11-11T18:52:17.458Z,7.77
2022-11-11T18:52:58.378Z,7.77
2022-11-11T18:57:59.886Z,7.57
2022-11-11T18:58:39.818Z,7.57
2022-11-11T19:03:15.396Z,7.57
2022-11-11T19:03:55.333Z,7.57
2022-11-11T19:08:30.285Z,7.59
2022-11-11T19:09:10.220Z,7.59
2022-11-11T19:13:45.835Z,7.49
2022-11-11T19:14:25.762Z,7.49
2022-11-11T19:19:00.683Z,7.49
2022-11-11T19:19:40.611Z,7.49
2022-11-11T19:24:16.856Z,7.37
2022-11-11T19:24:56.771Z,7.37
2022-11-11T19:29:32.372Z,7.37
2022-11-11T19:30:12.296Z,7.37
2022-11-11T19:34:47.242Z,7.46
2022-11-11T19:35:27.180Z,7.46
2022-11-11T19:40:02.817Z,7.46
2022-11-11T19:40:42.738Z,7.46
2022-11-11T19:45:18.290Z,7.4
2022-11-11T19:45:58.220Z,7.4
2022-11-11T19:50:33.160Z,7.4
2022-11-11T19:51:13.100Z,7.4
2022-11-11T19:55:48.684Z,7.56
2022-11-11T19:56:28.630Z,7.56
2022-11-11T20:01:05.474Z,7.56
2022-11-11T20:01:45.472Z,7.56
2022-11-11T20:06:22.297Z,7.45
2022-11-11T20:07:02.248Z,7.45
2022-11-11T20:11:40.360Z,7.45
2022-11-11T20:12:20.300Z,7.45
2022-11-11T20:16:56.519Z,7.44
2022-11-11T20:17:36.457Z,7.44
2022-11-11T20:22:12.098Z,7.44
2022-11-11T20:22:52.003Z,7.44
2022-11-11T20:27:27.574Z,7.47
2022-11-11T20:28:07.500Z,7.47
2022-11-11T20:32:42.435Z,7.47
2022-11-11T20:33:22.444Z,7.47
2022-11-11T20:37:58.601Z,7.35
2022-11-11T20:38:38.541Z,7.35
2022-11-11T20:43:14.741Z,7.35
2022-11-11T20:43:54.675Z,7.35
2022-11-11T20:48:30.289Z,7.28
2022-11-11T20:49:10.222Z,7.28
2022-11-11T20:53:47.101Z,7.25
2022-11-11T20:54:27.017Z,7.25
2022-11-11T20:59:04.520Z,7.25
2022-11-11T20:59:44.460Z,7.25
2022-11-11T21:04:19.483Z,7.17
2022-11-11T21:04:59.335Z,7.17
2022-11-11T21:09:34.922Z,7.17
2022-11-11T21:10:14.858Z,7.17
2022-11-11T21:14:50.462Z,7.22
2022-11-11T21:15:40.212Z,7.22
2022-11-11T21:20:50.129Z,7.22
2022-11-11T21:22:20.057Z,7.22
2022-11-11T21:26:38.286Z,7.36
2022-11-11T21:28:08.221Z,7.36
2022-11-11T21:31:56.742Z,7.36
2022-11-11T21:34:16.401Z,7.36
2022-11-11T21:37:53.105Z,7.27
2022-11-11T21:39:33.104Z,7.27
2022-11-11T21:43:08.624Z,7.27
2022-11-11T21:44:48.624Z,7.27
2022-11-11T21:49:14.137Z,7.17
2022-11-11T21:50:04.144Z,7.17
2022-11-11T21:54:30.313Z,7.17
2022-11-11T21:55:20.316Z,7.17
2022-11-11T21:59:45.171Z,7.18
2022-11-11T22:00:35.179Z,7.18
2022-11-11T22:05:00.058Z,7.18
2022-11-11T22:05:50.058Z,7.18
2022-11-11T22:10:16.279Z,7.34
2022-11-11T22:11:06.277Z,7.34
2022-11-11T22:15:30.454Z,7.32
2022-11-11T22:16:20.461Z,7.32
2022-11-11T22:20:46.027Z,7.32
2022-11-11T22:21:36.021Z,7.32
2022-11-11T22:26:02.136Z,7.34
2022-11-11T22:26:52.145Z,7.34
2022-11-11T22:31:17.022Z,7.34
2022-11-11T22:32:07.017Z,7.34
2022-11-11T22:36:33.223Z,7.46
2022-11-11T22:37:23.212Z,7.46
2022-11-11T22:41:49.970Z,7.46
2022-11-11T22:42:39.972Z,7.46
2022-11-11T22:47:04.861Z,7.24
2022-11-11T22:52:21.052Z,7.24
2022-11-11T22:57:37.187Z,7.37
2022-11-11T23:00:07.182Z,7.37
2022-11-11T23:03:51.641Z,7.37
2022-11-11T23:05:31.639Z,7.37
2022-11-11T23:09:08.249Z,7.37
2022-11-11T23:10:48.247Z,7.37
2022-11-11T23:15:49.335Z,7.41
2022-11-11T23:16:29.268Z,7.41
2022-11-11T23:21:22.107Z,7.41
2022-11-11T23:22:02.042Z,7.41
2022-11-11T23:26:43.408Z,7.64
2022-11-11T23:36:24.525Z,7.42
2022-11-11T23:37:14.518Z,7.42
2022-11-11T23:41:41.004Z,7.42
2022-11-11T23:42:31.589Z,7.42
2022-11-11T23:47:41.646Z,7.37
2022-11-11T23:57:32.125Z,7.35
2022-11-11T23:58:22.115Z,7.35
